Terminal Aerodrome Forecast
Issued by NWS Twin Cities, MN

Home | Current Version | Previous Version | Text Only | Print | Product List | Glossary On
Versions: 1 2 3 4 5 6 7 8 9 10 11 12 13 14 15 16 17 18 19
000
FTUS43 KMPX 302300
TAFEAU
TAF
KEAU 302339Z 0100/0124 12007KT P6SM SCT030 BKN250
     FM010600 13008KT P6SM VCSH SCT015 OVC040
     FM011000 13010KT 5SM -SHRA BR BKN008 OVC020
     FM011400 14011KT 4SM -RA BR SCT007 OVC015
     FM012100 15009KT 6SM BR OVC020=

USA.gov is the U.S. government's official web portal to all federal, state and local government web resources and services.